createdAt,value
2018-08-28T00:02:16.378Z,17.20
2018-08-28T00:04:43.384Z,17.10
2018-08-28T00:09:37.515Z,17.10
2018-08-28T00:14:45.039Z,17.00
2018-08-28T00:17:12.095Z,17.00
2018-08-28T00:19:39.803Z,17.00
2018-08-28T00:22:06.824Z,16.90
2018-08-28T00:24:33.818Z,16.90
2018-08-28T00:27:00.909Z,16.80
2018-08-28T00:29:27.943Z,16.80
2018-08-28T00:31:54.949Z,16.70
2018-08-28T00:34:21.963Z,16.70
2018-08-28T00:36:49.001Z,16.70
2018-08-28T00:39:15.991Z,16.70
2018-08-28T00:41:43.829Z,16.70
2018-08-28T00:44:10.867Z,16.60
2018-08-28T00:46:37.854Z,16.60
2018-08-28T00:49:04.854Z,16.70
2018-08-28T00:51:31.932Z,16.60
2018-08-28T00:53:58.879Z,16.60
2018-08-28T00:56:25.883Z,16.60
2018-08-28T00:58:52.918Z,16.70
2018-08-28T01:01:19.918Z,16.50
2018-08-28T01:03:46.915Z,16.50
2018-08-28T01:08:41.040Z,16.40
2018-08-28T01:11:08.038Z,16.40
2018-08-28T01:13:35.061Z,16.40
2018-08-28T01:16:02.921Z,16.30
2018-08-28T01:18:29.920Z,16.30
2018-08-28T01:20:56.962Z,16.20
2018-08-28T01:25:51.019Z,16.30
2018-08-28T01:30:56.534Z,16.50
2018-08-28T01:33:23.578Z,16.50
2018-08-28T01:35:50.571Z,16.50
2018-08-28T01:38:17.572Z,16.40
2018-08-28T01:40:44.620Z,16.40
2018-08-28T01:43:11.627Z,16.20
2018-08-28T01:45:38.632Z,16.20
2018-08-28T01:48:05.742Z,16.20
2018-08-28T01:50:32.728Z,16.10
2018-08-28T01:52:59.723Z,16.10
2018-08-28T01:57:53.833Z,16.30
2018-08-28T02:00:20.838Z,16.30
2018-08-28T02:02:47.888Z,16.20
2018-08-28T02:05:14.876Z,16.30
2018-08-28T02:07:41.878Z,16.30
2018-08-28T02:10:08.893Z,16.40
2018-08-28T02:12:36.001Z,16.40
2018-08-28T02:15:03.863Z,16.40
2018-08-28T02:17:30.898Z,16.30
2018-08-28T02:22:24.969Z,16.30
2018-08-28T02:24:51.995Z,16.30
2018-08-28T02:27:19.003Z,16.20
2018-08-28T02:29:46.008Z,16.20
2018-08-28T02:32:13.062Z,16.10
2018-08-28T02:34:40.082Z,16.10
2018-08-28T02:37:07.101Z,16.20
2018-08-28T02:39:34.219Z,16.10
2018-08-28T02:42:01.233Z,16.10
2018-08-28T02:44:28.218Z,16.10
2018-08-28T02:46:55.270Z,16.10
2018-08-28T02:49:22.297Z,16.00
2018-08-28T02:54:27.809Z,15.90
2018-08-28T02:56:54.801Z,15.90
2018-08-28T02:59:21.850Z,15.80
2018-08-28T03:01:48.885Z,15.90
2018-08-28T03:04:15.885Z,15.80
2018-08-28T03:06:42.883Z,15.80
2018-08-28T03:09:09.912Z,15.80
2018-08-28T03:14:04.023Z,15.60
2018-08-28T03:16:31.069Z,15.50
2018-08-28T03:18:58.942Z,15.30
2018-08-28T03:21:25.959Z,15.10
2018-08-28T03:23:53.821Z,15.10
2018-08-28T03:26:20.806Z,15.00
2018-08-28T03:28:47.807Z,15.10
2018-08-28T03:31:14.829Z,15.10
2018-08-28T03:33:41.825Z,15.20
2018-08-28T03:36:09.806Z,15.20
2018-08-28T03:38:36.842Z,15.10
2018-08-28T03:41:04.665Z,15.10
2018-08-28T03:43:31.657Z,15.00
2018-08-28T03:45:58.697Z,14.90
2018-08-28T03:48:25.712Z,14.90
2018-08-28T03:50:52.710Z,14.90
2018-08-28T03:53:19.752Z,14.70
2018-08-28T03:55:46.748Z,14.70
2018-08-28T03:58:13.754Z,14.70
2018-08-28T04:00:40.782Z,14.70
2018-08-28T04:03:07.787Z,14.70
2018-08-28T04:10:41.367Z,14.40
2018-08-28T04:13:08.418Z,14.40
2018-08-28T04:15:35.417Z,14.50
2018-08-28T04:18:02.413Z,14.40
2018-08-28T04:20:30.284Z,14.40
2018-08-28T04:22:57.283Z,14.40
2018-08-28T04:25:25.167Z,14.40
2018-08-28T04:27:52.214Z,14.40
2018-08-28T04:30:19.242Z,14.50
2018-08-28T04:32:46.233Z,14.40
2018-08-28T04:35:13.286Z,14.40
2018-08-28T04:37:40.297Z,14.40
2018-08-28T04:40:07.307Z,14.30
2018-08-28T04:42:34.358Z,14.40
2018-08-28T04:45:01.351Z,14.30
2018-08-28T04:47:28.363Z,14.30
2018-08-28T04:49:55.409Z,14.30
2018-08-28T04:52:22.389Z,14.30
2018-08-28T04:54:49.471Z,14.30
2018-08-28T04:57:16.444Z,14.30
2018-08-28T04:59:43.430Z,14.40
2018-08-28T05:02:10.440Z,14.40
2018-08-28T05:04:37.492Z,14.40
2018-08-28T05:07:04.483Z,14.40
2018-08-28T05:09:31.472Z,14.40
2018-08-28T05:11:58.504Z,14.20
2018-08-28T05:14:26.349Z,14.20
2018-08-28T05:16:53.345Z,14.20
2018-08-28T05:19:20.595Z,14.10
2018-08-28T05:21:47.549Z,14.20
2018-08-28T05:24:14.568Z,14.30
2018-08-28T05:26:41.633Z,14.30
2018-08-28T05:31:47.173Z,14.60
2018-08-28T05:34:14.179Z,14.60
2018-08-28T05:36:41.175Z,14.50
2018-08-28T05:39:08.204Z,14.60
2018-08-28T05:41:35.203Z,14.60
2018-08-28T05:44:02.209Z,14.60
2018-08-28T05:46:30.104Z,14.60
2018-08-28T05:48:57.109Z,14.50
2018-08-28T05:51:24.118Z,14.50
2018-08-28T05:53:51.154Z,14.90
2018-08-28T05:56:18.194Z,15.10
2018-08-28T05:58:46.151Z,15.10
2018-08-28T06:01:13.209Z,15.00
2018-08-28T06:03:40.224Z,15.00
2018-08-28T06:06:08.083Z,15.10
2018-08-28T06:08:36.076Z,15.20
2018-08-28T06:11:03.063Z,15.20
2018-08-28T06:13:30.059Z,15.20
2018-08-28T06:15:57.116Z,15.30
2018-08-28T06:18:24.112Z,15.50
2018-08-28T06:20:51.930Z,15.60
2018-08-28T06:23:18.961Z,15.60
2018-08-28T06:25:45.950Z,15.90
2018-08-28T06:28:12.957Z,15.90
2018-08-28T06:30:39.992Z,15.90
2018-08-28T06:33:06.999Z,16.30
2018-08-28T06:35:34.030Z,16.60
2018-08-28T06:38:01.065Z,16.90
2018-08-28T06:40:28.053Z,17.00
2018-08-28T06:42:56.012Z,17.20
2018-08-28T06:45:23.061Z,17.40
2018-08-28T06:47:51.505Z,17.70
2018-08-28T06:50:18.513Z,17.80
2018-08-28T06:52:45.570Z,18.00
2018-08-28T06:57:51.071Z,18.30
2018-08-28T07:00:18.364Z,18.50
2018-08-28T07:02:45.368Z,18.40
2018-08-28T07:05:12.399Z,18.00
2018-08-28T07:07:39.394Z,18.30
2018-08-28T07:10:06.410Z,17.90
2018-08-28T07:12:33.417Z,17.70
2018-08-28T07:15:00.425Z,17.80
2018-08-28T07:17:27.432Z,18.00
2018-08-28T07:19:54.481Z,18.20
2018-08-28T07:22:21.483Z,18.80
2018-08-28T07:24:48.663Z,19.10
2018-08-28T07:27:15.709Z,19.20
2018-08-28T07:29:42.709Z,18.60
2018-08-28T07:32:09.724Z,18.40
2018-08-28T07:34:36.778Z,18.20
2018-08-28T07:37:03.765Z,18.60
2018-08-28T07:39:30.773Z,18.70
2018-08-28T07:41:57.813Z,18.90
2018-08-28T07:44:24.826Z,19.00
2018-08-28T07:46:51.822Z,19.00
2018-08-28T07:49:18.846Z,18.60
2018-08-28T07:51:45.849Z,19.30
2018-08-28T07:54:12.843Z,19.90
2018-08-28T07:56:39.894Z,20.30
2018-08-28T07:59:06.892Z,19.70
2018-08-28T08:01:34.838Z,19.40
2018-08-28T08:04:01.799Z,19.60
2018-08-28T08:06:28.783Z,19.90
2018-08-28T08:08:56.738Z,20.20
2018-08-28T08:14:02.435Z,19.80
2018-08-28T08:16:29.480Z,20.20
2018-08-28T08:18:57.313Z,20.10
2018-08-28T08:21:24.310Z,20.70
2018-08-28T08:23:51.337Z,21.00
2018-08-28T08:26:18.327Z,21.20
2018-08-28T08:28:45.324Z,20.90
2018-08-28T08:31:12.355Z,21.10
2018-08-28T08:33:39.371Z,21.50
2018-08-28T08:36:06.365Z,21.80
2018-08-28T08:38:33.392Z,21.80
2018-08-28T08:41:00.389Z,21.80
2018-08-28T08:43:27.396Z,21.80
2018-08-28T08:45:54.447Z,21.60
2018-08-28T08:48:21.443Z,22.30
2018-08-28T08:50:48.450Z,21.90
2018-08-28T08:53:15.510Z,21.80
2018-08-28T08:55:42.520Z,21.80
2018-08-28T08:58:09.538Z,22.20
2018-08-28T09:05:30.768Z,22.80
2018-08-28T09:07:57.814Z,22.50
2018-08-28T09:15:19.419Z,23.70
2018-08-28T09:17:47.270Z,23.60
2018-08-28T09:20:14.271Z,23.80
2018-08-28T09:22:41.297Z,23.90
2018-08-28T09:25:08.342Z,23.40
2018-08-28T09:27:35.364Z,23.40
2018-08-28T09:30:02.396Z,24.00
2018-08-28T09:35:07.925Z,24.70
2018-08-28T09:37:34.933Z,23.80
2018-08-28T09:40:01.931Z,24.40
2018-08-28T09:42:28.962Z,24.60
2018-08-28T09:44:56.919Z,24.80
2018-08-28T09:47:23.923Z,24.90
2018-08-28T09:49:51.042Z,25.20
2018-08-28T09:52:18.002Z,25.20
2018-08-28T09:54:45.006Z,25.60
2018-08-28T10:02:07.046Z,26.10
2018-08-28T10:04:34.991Z,26.30
2018-08-28T10:07:01.968Z,26.80
2018-08-28T10:09:28.957Z,27.00
2018-08-28T10:11:55.983Z,27.00
2018-08-28T10:14:22.998Z,26.60
2018-08-28T10:16:50.021Z,26.60
2018-08-28T10:19:17.063Z,26.20
2018-08-28T10:21:44.055Z,26.30
2018-08-28T10:24:11.051Z,26.40
2018-08-28T10:26:38.096Z,26.80
2018-08-28T10:29:05.100Z,26.80
2018-08-28T10:31:32.093Z,27.30
2018-08-28T10:33:59.123Z,27.50
2018-08-28T10:36:26.132Z,27.80
2018-08-28T10:38:53.132Z,27.60
2018-08-28T10:41:20.172Z,26.90
2018-08-28T10:43:47.545Z,27.20
2018-08-28T10:46:14.648Z,27.70
2018-08-28T10:48:41.571Z,28.40
2018-08-28T10:51:08.561Z,28.40
2018-08-28T10:56:16.070Z,29.10
2018-08-28T10:58:43.129Z,28.60
2018-08-28T11:01:10.063Z,28.50
2018-08-28T11:03:37.099Z,28.30
2018-08-28T11:06:04.086Z,28.50
2018-08-28T11:08:31.103Z,28.50
2018-08-28T11:10:58.106Z,28.80
2018-08-28T11:13:25.106Z,29.40
2018-08-28T11:15:52.094Z,28.00
2018-08-28T11:18:19.126Z,27.50
2018-08-28T11:20:46.112Z,28.00
2018-08-28T11:23:13.103Z,27.20
2018-08-28T11:28:08.179Z,28.30
2018-08-28T11:30:35.161Z,26.90
2018-08-28T11:35:29.291Z,27.20
2018-08-28T11:37:57.013Z,27.80
2018-08-28T11:40:24.867Z,28.40
2018-08-28T11:42:51.859Z,27.40
2018-08-28T11:45:18.848Z,27.50
2018-08-28T11:47:45.875Z,27.70
2018-08-28T11:50:13.609Z,27.70
2018-08-28T11:52:40.630Z,27.20
2018-08-28T11:55:08.371Z,27.60
2018-08-28T11:57:35.370Z,27.80
2018-08-28T12:02:41.801Z,28.10
2018-08-28T12:05:09.659Z,28.20
2018-08-28T12:07:37.421Z,27.70
2018-08-28T12:10:04.434Z,27.70
2018-08-28T12:12:31.428Z,28.60
2018-08-28T12:17:25.531Z,29.60
2018-08-28T12:19:52.521Z,30.30
2018-08-28T12:22:19.502Z,28.90
2018-08-28T12:24:46.531Z,28.40
2018-08-28T12:27:13.514Z,27.80
2018-08-28T12:29:40.538Z,28.30
2018-08-28T12:32:07.534Z,27.90
2018-08-28T12:34:34.533Z,27.70
2018-08-28T12:37:02.499Z,27.90
2018-08-28T12:39:29.518Z,28.40
2018-08-28T12:41:56.516Z,28.80
2018-08-28T12:44:23.504Z,28.40
2018-08-28T12:46:50.520Z,29.10
2018-08-28T12:49:17.530Z,29.00
2018-08-28T12:51:44.525Z,29.20
2018-08-28T12:54:11.560Z,29.50
2018-08-28T12:56:38.543Z,29.10
2018-08-28T12:59:05.522Z,29.60
2018-08-28T13:01:32.561Z,29.70
2018-08-28T13:06:27.449Z,29.10
2018-08-28T13:08:55.417Z,29.70
2018-08-28T13:11:22.402Z,29.30
2018-08-28T13:13:49.381Z,28.80
2018-08-28T13:16:16.415Z,28.30
2018-08-28T13:23:49.014Z,28.20
2018-08-28T13:26:16.001Z,28.00
2018-08-28T13:28:43.014Z,27.80
2018-08-28T13:31:10.008Z,27.80
2018-08-28T13:36:04.137Z,27.60
2018-08-28T13:38:31.122Z,27.70
2018-08-28T13:40:58.118Z,27.70
2018-08-28T13:43:25.157Z,27.90
2018-08-28T13:45:52.143Z,27.90
2018-08-28T13:48:19.134Z,28.10
2018-08-28T13:50:46.995Z,28.00
2018-08-28T13:53:14.949Z,28.00
2018-08-28T13:58:09.060Z,28.20
2018-08-28T14:00:36.075Z,28.00
2018-08-28T14:03:03.039Z,28.20
2018-08-28T14:05:30.879Z,28.00
2018-08-28T14:07:57.872Z,28.20
2018-08-28T14:10:24.976Z,28.10
2018-08-28T14:12:51.898Z,28.30
2018-08-28T14:15:18.886Z,28.10
2018-08-28T14:17:46.740Z,28.20
2018-08-28T14:22:40.962Z,28.40
2018-08-28T14:25:07.829Z,28.30
2018-08-28T14:27:34.860Z,28.00
2018-08-28T14:30:01.860Z,28.40
2018-08-28T14:32:28.854Z,28.50
2018-08-28T14:34:55.877Z,27.80
2018-08-28T14:40:01.374Z,28.00
2018-08-28T14:42:28.395Z,27.80
2018-08-28T14:44:55.367Z,27.90
2018-08-28T14:47:22.398Z,28.00
2018-08-28T14:49:49.420Z,27.70
2018-08-28T14:52:16.380Z,27.70
2018-08-28T14:54:43.430Z,27.80
2018-08-28T14:57:10.427Z,27.90
2018-08-28T14:59:37.440Z,27.60
2018-08-28T15:02:04.550Z,27.60
2018-08-28T15:04:31.542Z,27.60
2018-08-28T15:06:58.602Z,27.40
2018-08-28T15:09:25.578Z,27.40
2018-08-28T15:11:52.574Z,27.20
2018-08-28T15:14:19.581Z,27.40
2018-08-28T15:16:46.727Z,27.20
2018-08-28T15:19:14.599Z,27.00
2018-08-28T15:21:41.599Z,27.10
2018-08-28T15:24:08.641Z,27.20
2018-08-28T15:26:35.643Z,27.20
2018-08-28T15:29:02.647Z,27.00
2018-08-28T15:33:57.478Z,27.00
2018-08-28T15:36:24.482Z,27.10
2018-08-28T15:38:51.563Z,27.20
2018-08-28T15:41:18.520Z,27.10
2018-08-28T15:43:45.516Z,27.10
2018-08-28T15:46:12.562Z,27.10
2018-08-28T15:48:39.565Z,26.90
2018-08-28T15:51:06.888Z,26.80
2018-08-28T15:53:33.891Z,26.90
2018-08-28T15:58:39.404Z,26.90
2018-08-28T16:01:06.411Z,27.00
2018-08-28T16:03:33.410Z,26.90
2018-08-28T16:06:00.457Z,26.90
2018-08-28T16:08:27.441Z,26.90
2018-08-28T16:10:54.443Z,26.90
2018-08-28T16:13:21.488Z,26.80
2018-08-28T16:15:48.530Z,26.80
2018-08-28T16:18:15.502Z,27.00
2018-08-28T16:20:42.531Z,26.80
2018-08-28T16:23:09.530Z,26.50
2018-08-28T16:25:37.364Z,26.60
2018-08-28T16:28:04.417Z,26.40
2018-08-28T16:30:31.415Z,26.40
2018-08-28T16:32:59.363Z,26.30
2018-08-28T16:37:53.255Z,26.40
2018-08-28T16:42:47.475Z,26.00
2018-08-28T16:45:14.589Z,25.90
2018-08-28T16:47:41.676Z,25.90
2018-08-28T16:50:08.757Z,25.70
2018-08-28T16:52:35.842Z,25.50
2018-08-28T16:57:30.029Z,25.60
2018-08-28T16:59:57.061Z,25.40
2018-08-28T17:02:24.052Z,25.30
2018-08-28T17:04:51.056Z,25.20
2018-08-28T17:07:18.369Z,25.10
2018-08-28T17:09:45.578Z,25.20
2018-08-28T17:14:39.744Z,25.10
2018-08-28T17:17:06.733Z,25.00
2018-08-28T17:19:33.734Z,25.00
2018-08-28T17:22:03.481Z,25.00
2018-08-28T17:24:28.698Z,25.00
2018-08-28T17:26:55.679Z,24.90
2018-08-28T17:29:22.711Z,24.90
2018-08-28T17:31:49.720Z,25.10
2018-08-28T17:34:16.727Z,25.10
2018-08-28T17:36:43.758Z,25.00
2018-08-28T17:39:10.750Z,24.70
2018-08-28T17:41:38.508Z,24.80
2018-08-28T17:44:05.568Z,24.80
2018-08-28T17:46:32.556Z,24.80
2018-08-28T17:49:00.165Z,24.80
2018-08-28T17:51:26.666Z,24.60
2018-08-28T17:56:32.172Z,24.40
2018-08-28T17:58:59.158Z,24.50
2018-08-28T18:01:26.220Z,24.50
2018-08-28T18:03:54.050Z,24.50
2018-08-28T18:06:21.032Z,24.50
2018-08-28T18:08:48.817Z,24.50
2018-08-28T18:11:16.685Z,24.20
2018-08-28T18:13:44.634Z,24.20
2018-08-28T18:18:38.747Z,24.10
2018-08-28T18:21:05.747Z,24.00
2018-08-28T18:23:32.744Z,24.10
2018-08-28T18:26:00.174Z,24.10
2018-08-28T18:28:28.162Z,24.00
2018-08-28T18:30:55.152Z,23.90
2018-08-28T18:33:22.293Z,23.50
2018-08-28T18:35:49.339Z,23.50
2018-08-28T18:40:43.437Z,23.40
2018-08-28T18:43:10.441Z,23.30
2018-08-28T18:45:37.445Z,23.20
2018-08-28T18:48:04.494Z,23.10
2018-08-28T18:50:31.486Z,23.00
2018-08-28T18:52:58.805Z,23.00
2018-08-28T18:55:27.486Z,23.00
2018-08-28T18:57:55.631Z,23.00
2018-08-28T19:00:22.649Z,22.90
2018-08-28T19:05:28.370Z,23.10
2018-08-28T19:07:56.133Z,23.20
2018-08-28T19:13:03.711Z,22.80
2018-08-28T19:15:30.749Z,22.70
2018-08-28T19:17:57.753Z,22.80
2018-08-28T19:20:24.804Z,22.70
2018-08-28T19:22:51.803Z,22.60
2018-08-28T19:25:18.880Z,22.40
2018-08-28T19:27:45.945Z,22.20
2018-08-28T19:30:12.983Z,22.00
2018-08-28T19:32:40.722Z,22.00
2018-08-28T19:35:07.773Z,22.00
2018-08-28T19:37:34.983Z,22.00
2018-08-28T19:40:01.831Z,21.90
2018-08-28T19:42:28.899Z,21.90
2018-08-28T19:44:55.929Z,21.90
2018-08-28T19:47:22.964Z,21.80
2018-08-28T19:49:50.073Z,21.80
2018-08-28T19:52:17.023Z,21.50
2018-08-28T19:54:44.039Z,21.30
2018-08-28T19:57:11.116Z,21.40
2018-08-28T19:59:38.160Z,21.40
2018-08-28T20:02:05.201Z,21.40
2018-08-28T20:04:32.241Z,21.30
2018-08-28T20:06:59.229Z,21.30
2018-08-28T20:12:04.890Z,21.20
2018-08-28T20:17:19.222Z,21.30
2018-08-28T20:19:46.466Z,21.30
2018-08-28T20:22:13.888Z,21.30
2018-08-28T20:24:45.811Z,21.20
2018-08-28T20:27:13.644Z,21.20
2018-08-28T20:29:41.493Z,21.30
2018-08-28T20:32:09.114Z,21.20
2018-08-28T20:34:36.707Z,21.30
2018-08-28T20:37:04.599Z,21.30
2018-08-28T20:39:32.632Z,21.30
2018-08-28T20:41:59.599Z,21.40
2018-08-28T20:44:26.582Z,21.30
2018-08-28T20:46:53.619Z,21.40
2018-08-28T20:49:20.628Z,21.40
2018-08-28T20:51:47.627Z,21.40
2018-08-28T20:54:14.685Z,21.10
2018-08-28T20:56:41.702Z,20.90
2018-08-28T20:59:08.710Z,20.90
2018-08-28T21:01:35.751Z,20.70
2018-08-28T21:04:02.745Z,20.60
2018-08-28T21:06:29.829Z,20.50
2018-08-28T21:08:56.846Z,20.50
2018-08-28T21:11:23.961Z,20.50
2018-08-28T21:13:51.026Z,20.40
2018-08-28T21:16:18.128Z,20.10
2018-08-28T21:21:12.264Z,20.10
2018-08-28T21:23:39.389Z,20.10
2018-08-28T21:26:06.427Z,20.10
2018-08-28T21:28:34.899Z,20.10
2018-08-28T21:31:01.051Z,20.10
2018-08-28T21:36:06.663Z,20.00
2018-08-28T21:38:33.726Z,20.00
2018-08-28T21:41:00.817Z,20.20
2018-08-28T21:43:27.856Z,20.40
2018-08-28T21:45:54.894Z,20.30
2018-08-28T21:48:21.956Z,20.40
2018-08-28T21:50:49.880Z,20.50
2018-08-28T21:55:43.978Z,20.40
2018-08-28T21:58:11.023Z,20.40
2018-08-28T22:00:38.033Z,20.40
2018-08-28T22:03:05.502Z,20.30
2018-08-28T22:05:32.530Z,20.30
2018-08-28T22:07:59.534Z,20.20
2018-08-28T22:10:26.538Z,20.20
2018-08-28T22:12:53.569Z,20.10
2018-08-28T22:15:20.576Z,20.10
2018-08-28T22:17:48.215Z,20.10
2018-08-28T22:20:15.239Z,19.90
2018-08-28T22:22:42.241Z,19.80
2018-08-28T22:25:09.225Z,19.80
2018-08-28T22:27:36.255Z,19.70
2018-08-28T22:30:03.256Z,19.70
2018-08-28T22:32:30.256Z,19.40
2018-08-28T22:34:58.811Z,19.20
2018-08-28T22:37:25.799Z,19.10
2018-08-28T22:39:52.792Z,19.00
2018-08-28T22:42:19.843Z,18.80
2018-08-28T22:44:46.833Z,18.80
2018-08-28T22:49:54.348Z,18.70
2018-08-28T22:52:21.356Z,18.80
2018-08-28T22:54:49.210Z,18.80
2018-08-28T22:57:16.256Z,18.80
2018-08-28T22:59:43.341Z,18.80
2018-08-28T23:02:10.269Z,18.70
2018-08-28T23:04:37.313Z,18.80
2018-08-28T23:07:04.310Z,18.80
2018-08-28T23:09:31.314Z,18.80
2018-08-28T23:11:58.339Z,18.90
2018-08-28T23:14:25.335Z,18.90
2018-08-28T23:16:52.334Z,18.90
2018-08-28T23:19:19.376Z,18.90
2018-08-28T23:21:46.370Z,18.80
2018-08-28T23:24:13.368Z,18.80
2018-08-28T23:26:40.415Z,18.80
2018-08-28T23:29:07.411Z,18.80
2018-08-28T23:31:34.417Z,18.60
2018-08-28T23:34:01.464Z,18.50
2018-08-28T23:36:28.457Z,18.50
2018-08-28T23:38:55.456Z,18.50
2018-08-28T23:43:50.388Z,18.50
2018-08-28T23:46:18.123Z,18.50
2018-08-28T23:48:45.152Z,18.40
2018-08-28T23:51:12.137Z,18.40
2018-08-28T23:56:06.227Z,18.30
2018-08-28T23:58:33.253Z,18.30
